Time;durP1;ratioP1;P1;durP2;ratioP2;P2;SDS_P1;SDS_P2;PMS_P1;PMS_P2;Temp;Humidity;BMP_temperature;BMP_pressure;BME280_temperature;BME280_humidity;BME280_pressure;Samples;Min_cycle;Max_cycle;Signal;HPM_P1;HPM_P2
2022/01/06 00:02:53;;;;;;;5.20;1.80;;;6.30;77.80;;;;;;6215784;28;20057;-80
2022/01/06 00:05:55;;;;;;;14.18;2.17;;;6.30;77.80;;;;;;6202274;28;20051;-80
2022/01/06 00:08:59;;;;;;;5.43;1.65;;;6.30;78.00;;;;;;6202793;28;20397;-80
2022/01/06 00:12:01;;;;;;;2.80;1.55;;;6.20;78.20;;;;;;6202619;28;20054;-77
2022/01/06 00:15:09;;;;;;;15.73;2.67;;;6.20;78.20;;;;;;6202407;28;20042;-80
2022/01/06 00:18:20;;;;;;;7.35;1.95;;;6.20;78.50;;;;;;6202053;28;20073;-79
2022/01/06 00:24:41;;;;;;;9.02;2.28;;;6.20;78.50;;;;;;6201522;28;20038;-80
2022/01/06 00:27:43;;;;;;;8.13;2.40;;;6.20;78.70;;;;;;6202752;28;20393;-80
2022/01/06 00:30:46;;;;;;;7.50;2.20;;;6.10;78.60;;;;;;6202757;28;20050;-80
2022/01/06 00:33:49;;;;;;;9.30;2.15;;;6.10;79.00;;;;;;6202376;28;20046;-79
2022/01/06 00:36:51;;;;;;;10.50;2.00;;;6.00;79.20;;;;;;6201385;28;20078;-79
2022/01/06 00:39:52;;;;;;;8.55;1.25;;;6.10;79.60;;;;;;6201552;28;20074;-79
2022/01/06 00:42:54;;;;;;;15.23;1.80;;;6.10;79.50;;;;;;6200710;28;20141;-80
2022/01/06 00:45:56;;;;;;;11.30;2.10;;;6.20;79.40;;;;;;6201134;28;20176;-79
2022/01/06 00:48:59;;;;;;;11.13;2.05;;;6.10;79.30;;;;;;6201075;28;20522;-79
2022/01/06 00:52:01;;;;;;;10.93;3.58;;;6.10;79.50;;;;;;6201314;28;20065;-79
2022/01/06 00:55:03;;;;;;;17.58;3.17;;;6.10;79.80;;;;;;6202511;28;20053;-79
2022/01/06 00:58:05;;;;;;;13.75;2.53;;;6.10;80.20;;;;;;6193215;28;20560;-78
2022/01/06 01:01:07;;;;;;;6.72;3.67;;;6.10;80.40;;;;;;6201693;28;20220;-80
2022/01/06 01:04:10;;;;;;;9.35;1.70;;;6.10;80.40;;;;;;6202289;28;20452;-79
2022/01/06 01:07:12;;;;;;;9.07;1.98;;;6.10;80.70;;;;;;6205473;28;20061;-80
2022/01/06 01:10:14;;;;;;;10.20;2.05;;;6.10;80.60;;;;;;6206863;28;20073;-80
2022/01/06 01:13:26;;;;;;;11.30;2.20;;;6.10;80.80;;;;;;6206398;28;20058;-79
2022/01/06 01:16:31;;;;;;;9.57;2.20;;;6.10;80.70;;;;;;6210396;28;20046;-81
2022/01/06 01:19:35;;;;;;;15.15;2.08;;;6.10;80.80;;;;;;6210831;28;20116;-80
2022/01/06 01:22:37;;;;;;;7.60;2.55;;;6.20;80.80;;;;;;6211587;28;20147;-80
2022/01/06 01:25:39;;;;;;;17.85;2.83;;;6.20;80.60;;;;;;6205861;28;20065;-81
2022/01/06 01:28:45;;;;;;;12.75;2.22;;;6.10;80.40;;;;;;6202895;28;20393;-81
2022/01/06 01:31:50;;;;;;;9.52;2.58;;;6.10;80.40;;;;;;6204946;28;20057;-81
2022/01/06 01:34:59;;;;;;;4.88;1.63;;;6.10;80.40;;;;;;6203420;28;20046;-80
2022/01/06 01:38:01;;;;;;;13.25;1.92;;;6.10;80.60;;;;;;6202790;28;20058;-80
2022/01/06 01:41:03;;;;;;;6.60;2.05;;;6.10;80.80;;;;;;6199913;28;20057;-80
2022/01/06 01:44:11;;;;;;;11.80;2.13;;;6.20;80.70;;;;;;6201786;28;20046;-80
2022/01/06 01:47:15;;;;;;;9.40;2.20;;;6.20;80.80;;;;;;6197219;28;20081;-80
2022/01/06 01:50:20;;;;;;;7.07;1.88;;;6.20;80.80;;;;;;6206354;28;20530;-80
2022/01/06 01:53:22;;;;;;;9.68;1.85;;;6.20;81.00;;;;;;6205178;28;20522;-80
2022/01/06 01:56:24;;;;;;;9.68;2.03;;;6.10;81.40;;;;;;6203942;28;20121;-77
2022/01/06 01:59:26;;;;;;;3.67;1.23;;;6.10;81.60;;;;;;6207144;28;20046;-81
2022/01/06 02:02:28;;;;;;;3.55;1.45;;;6.10;82.00;;;;;;6205859;28;20078;-80
2022/01/06 02:05:32;;;;;;;7.50;2.10;;;6.10;81.80;;;;;;6205060;28;20053;-80
2022/01/06 02:08:34;;;;;;;5.93;1.73;;;6.10;81.90;;;;;;6205946;28;20050;-80
2022/01/06 02:11:36;;;;;;;9.70;1.88;;;6.00;81.90;;;;;;6206704;28;20056;-79
2022/01/06 02:14:38;;;;;;;6.30;1.48;;;6.00;82.00;;;;;;6204962;28;20049;-82
2022/01/06 02:17:41;;;;;;;5.78;2.08;;;6.00;82.10;;;;;;6205348;28;20053;-80
2022/01/06 02:20:44;;;;;;;10.60;2.75;;;6.00;82.30;;;;;;6204451;28;20083;-80
2022/01/06 02:23:46;;;;;;;4.60;1.30;;;6.00;82.10;;;;;;6208511;28;20118;-79
2022/01/06 02:26:48;;;;;;;8.65;2.85;;;6.00;82.20;;;;;;6205638;28;20082;-78
2022/01/06 02:29:51;;;;;;;6.28;3.15;;;6.00;82.20;;;;;;6205382;28;20050;-80
2022/01/06 02:32:53;;;;;;;6.30;1.92;;;6.00;82.20;;;;;;6205594;28;20167;-79
2022/01/06 02:35:57;;;;;;;6.63;1.83;;;6.00;82.40;;;;;;6203854;28;20050;-80
2022/01/06 02:38:58;;;;;;;4.40;1.58;;;6.00;82.50;;;;;;6205801;28;20074;-80
2022/01/06 02:42:00;;;;;;;5.70;2.35;;;6.00;82.30;;;;;;6206801;28;20097;-81
2022/01/06 02:45:02;;;;;;;11.82;2.47;;;6.00;82.50;;;;;;6212618;28;20042;-79
2022/01/06 02:48:08;;;;;;;4.63;1.80;;;6.00;82.60;;;;;;6220035;28;20515;-78
2022/01/06 02:51:11;;;;;;;5.30;2.47;;;6.10;82.90;;;;;;6206055;28;20051;-80
2022/01/06 02:54:14;;;;;;;8.55;1.85;;;6.10;82.70;;;;;;6207377;28;20048;-79
2022/01/06 02:57:16;;;;;;;4.72;2.20;;;6.00;83.60;;;;;;6204865;28;20054;-80
2022/01/06 03:00:21;;;;;;;8.98;2.60;;;6.10;83.10;;;;;;6204241;28;20471;-79
2022/01/06 03:03:23;;;;;;;7.28;2.60;;;6.10;83.20;;;;;;6206101;28;20050;-80
2022/01/06 03:06:26;;;;;;;4.68;1.40;;;6.10;83.20;;;;;;6204160;28;20100;-80
2022/01/06 03:09:37;;;;;;;11.85;2.05;;;6.10;83.50;;;;;;6203476;28;20181;-79
2022/01/06 03:12:40;;;;;;;6.18;2.03;;;6.10;83.50;;;;;;6203628;28;20049;-80
2022/01/06 03:15:42;;;;;;;6.70;2.95;;;6.10;84.10;;;;;;6203834;28;20050;-80
2022/01/06 03:18:43;;;;;;;8.68;3.15;;;6.10;83.60;;;;;;6195024;28;20169;-80
2022/01/06 03:21:46;;;;;;;8.38;1.75;;;6.10;83.80;;;;;;6203445;28;20419;-80
2022/01/06 03:24:48;;;;;;;10.02;2.17;;;6.10;84.10;;;;;;6203029;28;20047;-80
2022/01/06 03:27:51;;;;;;;15.77;3.45;;;6.10;84.10;;;;;;6203339;28;20054;-80
2022/01/06 03:30:52;;;;;;;9.68;2.03;;;6.10;84.30;;;;;;6204313;28;20610;-80
2022/01/06 03:33:54;;;;;;;8.30;2.53;;;6.10;84.30;;;;;;6203883;28;20049;-80
2022/01/06 03:36:57;;;;;;;7.65;2.55;;;6.10;84.40;;;;;;6202743;28;20411;-79
2022/01/06 03:40:04;;;;;;;8.40;2.13;;;6.10;84.60;;;;;;6202612;28;20144;-79
2022/01/06 03:43:06;;;;;;;9.20;2.42;;;6.10;84.70;;;;;;6196376;28;20053;-81
2022/01/06 03:46:08;;;;;;;12.10;2.22;;;6.10;84.90;;;;;;6202559;28;20056;-79
2022/01/06 03:49:09;;;;;;;10.95;2.55;;;6.00;85.00;;;;;;6202775;28;20049;-79
2022/01/06 03:52:12;;;;;;;13.75;3.30;;;5.90;85.20;;;;;;6202801;28;20318;-81
2022/01/06 03:55:17;;;;;;;9.80;2.70;;;5.90;85.80;;;;;;6203147;28;20042;-80
2022/01/06 03:58:19;;;;;;;7.60;2.67;;;5.80;86.20;;;;;;6202489;28;20050;-79
2022/01/06 04:01:20;;;;;;;12.93;5.07;;;5.80;86.30;;;;;;6201925;28;20053;-80
2022/01/06 04:04:22;;;;;;;12.70;2.67;;;5.80;86.40;;;;;;6202302;28;20054;-78
2022/01/06 04:07:25;;;;;;;11.18;2.85;;;5.80;86.50;;;;;;6202832;28;20061;-80
2022/01/06 04:10:27;;;;;;;14.77;3.67;;;5.70;86.60;;;;;;6202132;28;20046;-80
2022/01/06 04:13:29;;;;;;;11.23;2.85;;;5.60;87.20;;;;;;6201780;28;20073;-80
2022/01/06 04:16:35;;;;;;;15.40;3.00;;;5.50;87.70;;;;;;6201913;28;20125;-80
2022/01/06 04:19:37;;;;;;;12.88;2.80;;;5.40;88.10;;;;;;6202253;28;20050;-80
2022/01/06 04:22:41;;;;;;;9.75;2.47;;;5.30;88.30;;;;;;6201172;28;20057;-80
2022/01/06 04:25:42;;;;;;;9.63;2.70;;;5.20;89.60;;;;;;6201457;28;20049;-80
2022/01/06 04:28:44;;;;;;;11.60;2.80;;;5.20;89.30;;;;;;6201602;28;20133;-80
2022/01/06 04:31:46;;;;;;;10.25;3.20;;;5.10;89.90;;;;;;6202429;28;20539;-80
2022/01/06 04:34:48;;;;;;;16.42;3.65;;;5.10;90.00;;;;;;6202195;28;20042;-80
2022/01/06 04:37:51;;;;;;;11.43;2.75;;;5.10;90.10;;;;;;6201462;28;20046;-79
2022/01/06 04:40:53;;;;;;;10.20;2.85;;;5.10;90.20;;;;;;6201046;28;20151;-79
2022/01/06 04:43:54;;;;;;;16.35;3.30;;;5.10;90.20;;;;;;6200312;28;20050;-80
2022/01/06 04:46:56;;;;;;;9.48;3.03;;;5.10;90.20;;;;;;6201131;28;20054;-80
2022/01/06 04:49:58;;;;;;;6.25;3.13;;;5.10;90.30;;;;;;6200780;28;20046;-79
2022/01/06 04:53:01;;;;;;;7.90;2.70;;;5.00;90.40;;;;;;6201344;28;20046;-80
2022/01/06 04:56:03;;;;;;;11.82;3.45;;;4.90;90.80;;;;;;6201426;28;20054;-80
2022/01/06 04:59:07;;;;;;;11.95;2.90;;;4.70;90.80;;;;;;6193532;28;20129;-80
2022/01/06 05:02:09;;;;;;;10.95;3.05;;;4.70;91.00;;;;;;6193469;28;20046;-80
2022/01/06 05:05:13;;;;;;;21.45;3.78;;;4.60;91.10;;;;;;6201042;28;20043;-80
2022/01/06 05:08:16;;;;;;;8.48;2.88;;;4.60;91.40;;;;;;6200966;28;20046;-80
2022/01/06 05:11:18;;;;;;;7.10;3.08;;;4.50;91.50;;;;;;6201168;28;20055;-80
2022/01/06 05:14:20;;;;;;;10.20;6.20;;;4.50;91.60;;;;;;6200845;28;20046;-77
2022/01/06 05:17:21;;;;;;;11.45;3.75;;;4.50;91.60;;;;;;6201151;28;20050;-80
2022/01/06 05:20:25;;;;;;;13.60;3.28;;;4.60;91.60;;;;;;6201376;28;20133;-81
2022/01/06 05:23:28;;;;;;;7.63;3.33;;;4.70;91.40;;;;;;6206043;28;20061;-79
2022/01/06 05:26:30;;;;;;;10.07;3.70;;;4.70;91.30;;;;;;6206070;28;20563;-80
2022/01/06 05:29:32;;;;;;;14.48;3.13;;;4.80;91.30;;;;;;6205974;28;20100;-80
2022/01/06 05:32:34;;;;;;;6.25;3.83;;;4.80;91.20;;;;;;6205998;28;20053;-80
2022/01/06 05:35:36;;;;;;;10.63;3.15;;;4.80;91.20;;;;;;6205840;28;20061;-79
2022/01/06 05:38:39;;;;;;;13.73;3.83;;;4.80;91.30;;;;;;6205600;28;20058;-79
2022/01/06 05:41:41;;;;;;;9.68;3.58;;;4.90;91.20;;;;;;6205050;28;20047;-79
2022/01/06 05:44:44;;;;;;;8.00;3.80;;;4.90;91.20;;;;;;6209921;28;20082;-80
2022/01/06 05:47:45;;;;;;;11.50;3.85;;;5.00;91.10;;;;;;6206472;28;20070;-80
2022/01/06 05:50:48;;;;;;;10.52;3.85;;;5.00;91.10;;;;;;6236433;23;20049;-85
2022/01/06 05:53:53;;;;;;;8.68;3.42;;;5.10;91.00;;;;;;6256863;28;20123;-84
2022/01/06 05:56:54;;;;;;;8.00;3.47;;;5.10;91.20;;;;;;6256131;28;20049;-84
2022/01/06 05:59:56;;;;;;;13.07;3.08;;;5.20;90.80;;;;;;6256352;28;20152;-85
2022/01/06 06:02:58;;;;;;;11.68;4.10;;;5.20;90.80;;;;;;6256564;28;20053;-85
2022/01/06 06:06:00;;;;;;;7.53;3.50;;;5.20;90.70;;;;;;6254750;28;20414;-84
2022/01/06 06:09:03;;;;;;;7.88;3.00;;;5.20;90.70;;;;;;6255310;28;20120;-83
2022/01/06 06:12:06;;;;;;;12.70;3.97;;;5.20;90.70;;;;;;6246703;28;20065;-83
2022/01/06 06:15:08;;;;;;;9.80;3.65;;;5.20;90.70;;;;;;6254153;28;20060;-84
2022/01/06 06:18:12;;;;;;;6.20;3.60;;;5.10;90.90;;;;;;6253876;28;20041;-84
2022/01/06 06:21:13;;;;;;;16.08;3.92;;;4.90;91.00;;;;;;6253707;28;20042;-84
2022/01/06 06:24:18;;;;;;;7.95;2.83;;;4.80;91.20;;;;;;6254621;28;20092;-84
2022/01/06 06:27:20;;;;;;;7.47;3.22;;;4.70;91.40;;;;;;6254498;28;20093;-84
2022/01/06 06:30:22;;;;;;;10.93;4.32;;;4.60;91.70;;;;;;6254089;28;20136;-83
2022/01/06 06:33:24;;;;;;;8.18;3.60;;;4.60;91.70;;;;;;6252293;28;20056;-82
2022/01/06 06:36:26;;;;;;;13.63;4.63;;;4.70;91.70;;;;;;6252772;28;20191;-82
2022/01/06 06:39:29;;;;;;;16.63;3.80;;;4.70;91.70;;;;;;6253790;28;20054;-82
2022/01/06 06:42:30;;;;;;;17.10;3.55;;;4.80;91.60;;;;;;6252559;28;20045;-82
2022/01/06 06:45:32;;;;;;;12.20;4.43;;;4.80;91.70;;;;;;6252681;28;20037;-82
2022/01/06 06:48:34;;;;;;;14.43;5.07;;;4.80;91.60;;;;;;6252732;28;20051;-82
2022/01/06 06:51:36;;;;;;;19.90;5.65;;;4.90;91.60;;;;;;6253058;28;20069;-82
2022/01/06 06:54:40;;;;;;;17.83;6.38;;;5.10;91.50;;;;;;6252572;28;20060;-82
2022/01/06 06:57:42;;;;;;;10.05;4.47;;;5.10;91.30;;;;;;6253750;28;20065;-82
2022/01/06 07:00:44;;;;;;;9.15;3.88;;;5.20;91.20;;;;;;6253188;28;20052;-82
2022/01/06 07:03:46;;;;;;;14.93;4.45;;;5.30;91.00;;;;;;6252614;28;20109;-82
2022/01/06 07:06:48;;;;;;;13.63;4.00;;;5.30;91.20;;;;;;6252892;28;20084;-81
2022/01/06 07:09:51;;;;;;;9.85;3.80;;;5.20;90.90;;;;;;6252579;28;20517;-81
2022/01/06 07:12:53;;;;;;;12.52;4.72;;;5.20;91.00;;;;;;6252684;28;20045;-81
2022/01/06 07:15:54;;;;;;;10.35;3.80;;;5.20;91.10;;;;;;6252453;28;20105;-81
2022/01/06 07:18:56;;;;;;;14.73;6.15;;;5.20;91.00;;;;;;6253646;28;20049;-81
2022/01/06 07:21:58;;;;;;;8.00;4.40;;;5.20;91.10;;;;;;6252628;28;20060;-82
2022/01/06 07:25:02;;;;;;;16.33;8.48;;;5.20;91.20;;;;;;6251999;28;20105;-82
2022/01/06 07:28:04;;;;;;;22.15;11.38;;;5.20;91.10;;;;;;6252577;28;20048;-82
2022/01/06 07:31:06;;;;;;;12.20;4.60;;;5.20;91.10;;;;;;6244549;28;20183;-82
2022/01/06 07:34:08;;;;;;;15.90;8.40;;;5.20;91.10;;;;;;6251187;28;20050;-82
2022/01/06 07:37:10;;;;;;;12.27;5.03;;;5.20;91.00;;;;;;6251019;28;20526;-82
2022/01/06 07:40:13;;;;;;;19.02;8.77;;;5.20;91.00;;;;;;6251121;28;20045;-82
2022/01/06 07:43:15;;;;;;;11.52;5.68;;;5.30;91.10;;;;;;6251847;28;20049;-83
2022/01/06 07:46:17;;;;;;;11.57;4.60;;;5.30;91.00;;;;;;6250178;28;20046;-82
2022/01/06 07:49:18;;;;;;;11.60;4.80;;;5.30;91.00;;;;;;6252132;28;20052;-82
2022/01/06 07:52:21;;;;;;;12.85;4.53;;;5.30;90.80;;;;;;6251919;28;20041;-83
2022/01/06 07:55:25;;;;;;;14.02;4.97;;;5.30;90.90;;;;;;6253436;28;20049;-82
2022/01/06 07:58:26;;;;;;;13.10;4.57;;;5.30;90.90;;;;;;6251767;28;20050;-82
2022/01/06 08:01:28;;;;;;;8.95;3.95;;;5.30;90.90;;;;;;6218626;28;20124;-81
2022/01/06 08:04:30;;;;;;;17.20;4.57;;;5.40;91.30;;;;;;6242100;28;20400;-80
2022/01/06 08:07:32;;;;;;;12.95;4.22;;;5.40;90.90;;;;;;6268051;28;20061;-81
2022/01/06 08:10:35;;;;;;;11.95;4.97;;;5.50;90.90;;;;;;6239586;28;20129;-80
2022/01/06 08:13:37;;;;;;;12.57;5.55;;;5.60;90.90;;;;;;6226529;28;20049;-82
2022/01/06 08:16:38;;;;;;;14.95;4.60;;;5.60;90.80;;;;;;6226524;28;20050;-81
2022/01/06 08:19:41;;;;;;;11.65;4.60;;;5.70;90.50;;;;;;6226920;28;20053;-80
2022/01/06 08:22:42;;;;;;;117.18;56.38;;;5.80;90.40;;;;;;6227054;28;20050;-80
2022/01/06 08:25:46;;;;;;;7.80;4.47;;;5.80;90.40;;;;;;6226152;28;20052;-80
2022/01/06 08:28:47;;;;;;;14.63;6.47;;;5.90;90.30;;;;;;6228224;28;20141;-81
2022/01/06 08:31:49;;;;;;;12.50;3.95;;;5.90;90.10;;;;;;6230156;28;20396;-81
2022/01/06 08:34:51;;;;;;;9.80;4.53;;;5.90;90.00;;;;;;6239787;28;20052;-81
2022/01/06 08:37:53;;;;;;;49.88;27.45;;;6.00;90.00;;;;;;6250654;28;20057;-81
2022/01/06 08:40:56;;;;;;;7.32;3.75;;;6.20;89.90;;;;;;6259236;28;20056;-82
2022/01/06 08:43:58;;;;;;;9.68;4.43;;;6.30;89.30;;;;;;6255876;28;20045;-81
2022/01/06 08:47:01;;;;;;;18.08;3.80;;;6.30;88.60;;;;;;6255337;28;20049;-81
2022/01/06 08:50:04;;;;;;;7.82;4.30;;;6.20;88.30;;;;;;6255219;28;20128;-80
2022/01/06 08:53:05;;;;;;;7.93;3.80;;;6.30;88.80;;;;;;6254923;28;20045;-81
2022/01/06 08:56:08;;;;;;;12.10;4.10;;;6.30;88.60;;;;;;6254114;28;20053;-80
2022/01/06 08:59:10;;;;;;;8.95;3.92;;;6.20;88.30;;;;;;6255337;28;20060;-81
2022/01/06 09:02:12;;;;;;;14.93;4.60;;;6.30;88.80;;;;;;6256221;28;20046;-80
2022/01/06 09:05:15;;;;;;;11.60;3.58;;;6.30;88.20;;;;;;6265535;28;20037;-81
2022/01/06 09:08:16;;;;;;;7.82;3.83;;;6.40;88.60;;;;;;6275302;28;20045;-81
2022/01/06 09:11:20;;;;;;;8.23;3.97;;;6.60;88.30;;;;;;6280408;28;20048;-80
2022/01/06 09:14:22;;;;;;;8.98;4.00;;;6.60;87.70;;;;;;6275645;28;20570;-80
2022/01/06 09:17:24;;;;;;;11.80;4.53;;;6.70;87.50;;;;;;6274483;28;20094;-80
2022/01/06 09:20:26;;;;;;;12.02;3.38;;;6.80;87.10;;;;;;6273624;28;20076;-81
2022/01/06 09:23:28;;;;;;;10.98;4.35;;;6.90;87.60;;;;;;6276161;28;20644;-80
2022/01/06 09:26:31;;;;;;;13.18;4.63;;;7.00;86.80;;;;;;6277389;28;20056;-80
2022/01/06 09:29:33;;;;;;;12.60;5.63;;;7.10;86.50;;;;;;6278102;28;20045;-80
2022/01/06 09:32:35;;;;;;;13.90;3.80;;;7.30;85.30;;;;;;6268939;28;20049;-80
2022/01/06 09:35:36;;;;;;;13.25;4.60;;;7.20;84.50;;;;;;6266765;28;20045;-80
2022/01/06 09:38:38;;;;;;;11.63;4.03;;;7.10;84.90;;;;;;6274250;28;20045;-84
2022/01/06 09:41:41;;;;;;;14.70;4.60;;;7.00;85.10;;;;;;6275552;28;20390;-80
2022/01/06 09:44:43;;;;;;;11.80;4.60;;;6.90;85.50;;;;;;6275544;28;20051;-80
2022/01/06 09:47:46;;;;;;;17.25;4.60;;;7.00;85.40;;;;;;6274500;28;20040;-84
2022/01/06 09:50:48;;;;;;;14.40;4.10;;;7.00;85.00;;;;;;6275695;28;20052;-81
2022/01/06 09:53:52;;;;;;;11.40;3.88;;;6.90;85.00;;;;;;6273875;28;20045;-80
2022/01/06 09:56:55;;;;;;;15.65;5.00;;;6.70;85.10;;;;;;6271115;28;20056;-81
2022/01/06 09:59:57;;;;;;;9.23;3.53;;;6.70;86.30;;;;;;6276318;28;20108;-80
2022/01/06 10:03:01;;;;;;;6.88;4.22;;;6.90;85.90;;;;;;6257811;28;20047;-80
2022/01/06 10:06:12;;;;;;;7.38;3.78;;;7.20;86.00;;;;;;6261640;28;20567;-79
2022/01/06 10:09:13;;;;;;;9.05;3.75;;;7.60;85.10;;;;;;6273941;28;20525;-81
2022/01/06 10:12:17;;;;;;;9.80;3.20;;;7.60;83.20;;;;;;6273901;28;20068;-80
2022/01/06 10:15:22;;;;;;;8.30;4.43;;;7.60;82.80;;;;;;6274344;28;20052;-81
2022/01/06 10:18:24;;;;;;;13.38;3.78;;;7.50;83.10;;;;;;6261121;28;20586;-81
2022/01/06 10:21:26;;;;;;;10.30;4.45;;;7.50;83.50;;;;;;6249884;28;20059;-81
2022/01/06 10:24:29;;;;;;;10.15;4.18;;;7.70;83.40;;;;;;6249300;28;20048;-81
2022/01/06 10:27:32;;;;;;;11.85;3.00;;;8.10;83.10;;;;;;6249752;28;20049;-80
2022/01/06 10:30:34;;;;;;;6.93;3.20;;;8.60;80.20;;;;;;6232065;28;20111;-80
2022/01/06 10:33:40;;;;;;;6.07;3.00;;;9.00;78.10;;;;;;6250943;28;20041;-81
2022/01/06 10:36:42;;;;;;;10.27;3.83;;;9.30;77.30;;;;;;6242529;28;20102;-79
2022/01/06 10:39:46;;;;;;;9.50;3.70;;;9.40;75.10;;;;;;6250845;28;20067;-81
2022/01/06 10:42:50;;;;;;;11.90;3.63;;;9.50;76.30;;;;;;6251083;28;20079;-80
2022/01/06 10:46:01;;;;;;;9.43;3.13;;;9.80;75.60;;;;;;6249423;28;20413;-82
2022/01/06 10:49:05;;;;;;;9.00;4.03;;;10.10;74.00;;;;;;6251332;28;20049;-80
2022/01/06 10:52:07;;;;;;;6.70;2.72;;;10.10;73.20;;;;;;6213793;28;1084897;-80
2022/01/06 10:55:11;;;;;;;6.88;3.03;;;10.00;73.90;;;;;;6253125;28;20052;-81
2022/01/06 10:58:19;;;;;;;6.43;2.88;;;10.20;74.20;;;;;;6252542;28;20045;-79
2022/01/06 11:01:21;;;;;;;;;;;10.30;73.40;;;;;;6251859;28;20136;-81
2022/01/06 11:04:23;;;;;;;6.38;2.95;;;10.30;71.70;;;;;;6259502;28;20293;-80
2022/01/06 11:07:25;;;;;;;12.70;3.78;;;10.20;72.10;;;;;;6252119;28;20053;-80
2022/01/06 11:10:27;;;;;;;10.80;3.38;;;10.20;72.10;;;;;;6253142;28;20056;-81
2022/01/06 11:13:31;;;;;;;6.43;2.80;;;10.10;71.70;;;;;;6251971;28;20056;-80
2022/01/06 11:16:33;;;;;;;9.18;2.83;;;10.00;71.80;;;;;;6251469;28;20491;-80
2022/01/06 11:19:35;;;;;;;6.90;3.28;;;9.90;72.30;;;;;;6250559;28;20139;-80
2022/01/06 11:22:48;;;;;;;9.05;2.72;;;9.70;71.80;;;;;;6251069;28;20495;-80
2022/01/06 11:26:04;;;;;;;6.47;3.13;;;9.60;72.50;;;;;;6252455;28;20424;-81
2022/01/06 11:29:07;;;;;;;11.45;2.92;;;9.60;72.00;;;;;;6250725;28;20418;-80
2022/01/06 11:32:19;;;;;;;6.65;2.65;;;9.50;72.30;;;;;;6250087;28;20202;-80
2022/01/06 11:35:21;;;;;;;17.98;4.72;;;9.50;72.80;;;;;;6264921;28;20509;-81
2022/01/06 11:38:26;;;;;;;11.02;2.92;;;9.40;72.50;;;;;;6251462;28;20052;-82
2022/01/06 11:41:33;;;;;;;14.27;3.47;;;9.40;72.70;;;;;;6251303;28;20366;-82
2022/01/06 11:44:37;;;;;;;11.35;3.30;;;9.40;72.40;;;;;;6253454;28;20052;-81
2022/01/06 11:47:40;;;;;;;12.48;5.22;;;9.30;72.30;;;;;;6252258;28;20119;-84
2022/01/06 11:50:43;;;;;;;6.95;3.13;;;9.20;73.80;;;;;;6252642;28;20057;-82
2022/01/06 11:53:45;;;;;;;12.55;5.40;;;9.50;74.10;;;;;;6255053;28;20049;-81
2022/01/06 11:56:49;;;;;;;15.30;3.83;;;9.60;72.80;;;;;;6256772;28;20042;-80
2022/01/06 11:59:52;;;;;;;9.10;3.20;;;9.70;72.30;;;;;;6246784;28;20056;-80
2022/01/06 12:02:58;;;;;;;23.25;4.03;;;9.80;72.30;;;;;;6258220;28;20072;-82
2022/01/06 12:06:00;;;;;;;10.43;3.53;;;9.80;71.50;;;;;;6270283;28;20076;-80
2022/01/06 12:09:01;;;;;;;11.32;2.95;;;9.70;71.70;;;;;;6269088;28;20049;-80
2022/01/06 12:12:06;;;;;;;14.63;3.05;;;9.70;72.30;;;;;;6254009;28;20052;-79
2022/01/06 12:15:12;;;;;;;5.15;2.55;;;9.80;72.00;;;;;;6254790;28;20065;-82
2022/01/06 12:18:19;;;;;;;11.40;2.90;;;9.80;71.80;;;;;;6254617;28;20049;-81
2022/01/06 12:21:22;;;;;;;10.73;3.30;;;9.90;71.50;;;;;;6253111;28;20049;-81
2022/01/06 12:24:24;;;;;;;14.15;3.67;;;9.90;70.70;;;;;;6253507;28;20121;-80
2022/01/06 12:27:27;;;;;;;8.60;2.13;;;10.20;71.30;;;;;;6253342;28;20046;-80
2022/01/06 12:30:35;;;;;;;10.20;4.43;;;10.30;69.30;;;;;;6253809;28;20049;-80
2022/01/06 12:33:43;;;;;;;8.82;2.58;;;10.30;68.90;;;;;;6261448;28;20053;-80
2022/01/06 12:36:46;;;;;;;8.52;3.08;;;10.20;68.80;;;;;;6271809;28;20068;-80
2022/01/06 12:39:48;;;;;;;10.32;2.85;;;10.00;68.90;;;;;;6243747;28;20396;-79
2022/01/06 12:42:49;;;;;;;14.45;3.42;;;9.80;68.90;;;;;;6252859;28;20117;-80
2022/01/06 12:46:04;;;;;;;10.68;2.70;;;9.50;70.10;;;;;;6252758;28;20084;-80
2022/01/06 12:49:08;;;;;;;13.60;3.08;;;9.30;70.90;;;;;;6252363;28;20183;-79
2022/01/06 12:52:10;;;;;;;6.65;2.45;;;9.00;71.40;;;;;;6252791;28;20046;-80
2022/01/06 12:55:12;;;;;;;8.77;2.83;;;8.80;72.00;;;;;;6252181;28;20045;-80
2022/01/06 12:58:24;;;;;;;6.03;2.70;;;8.70;73.00;;;;;;6252477;28;20049;-80
2022/01/06 13:01:29;;;;;;;6.80;3.13;;;8.50;73.80;;;;;;6252920;28;20572;-81
2022/01/06 13:04:32;;;;;;;11.68;3.50;;;8.50;74.10;;;;;;6253316;28;20056;-81
2022/01/06 13:07:34;;;;;;;10.25;2.30;;;8.50;74.10;;;;;;6277378;28;20114;-80
2022/01/06 13:10:35;;;;;;;9.40;2.47;;;8.40;74.40;;;;;;6278627;28;20053;-82
2022/01/06 13:13:45;;;;;;;11.10;2.60;;;8.40;74.90;;;;;;6279245;28;20053;-82
2022/01/06 13:16:49;;;;;;;10.10;2.20;;;8.30;74.90;;;;;;6277249;28;20124;-84
2022/01/06 13:19:58;;;;;;;10.20;2.38;;;8.20;74.80;;;;;;6277247;28;20044;-81
2022/01/06 13:23:41;;;;;;;9.40;2.72;;;8.10;75.20;;;;;;6276728;28;20513;-80
2022/01/06 13:26:45;;;;;;;12.05;3.20;;;7.90;75.50;;;;;;6275567;28;20052;-81
2022/01/06 13:29:52;;;;;;;10.07;2.95;;;7.80;76.10;;;;;;6278464;28;20051;-82
2022/01/06 13:32:58;;;;;;;10.17;2.80;;;7.80;76.80;;;;;;6269417;28;20071;-81
2022/01/06 13:36:01;;;;;;;5.72;3.53;;;7.80;76.30;;;;;;6267354;28;20041;-80
2022/01/06 13:39:11;;;;;;;7.57;2.60;;;7.70;76.50;;;;;;6275575;28;20045;-80
2022/01/06 13:42:25;;;;;;;8.20;3.03;;;7.60;76.70;;;;;;6254703;28;20136;-81
2022/01/06 13:45:32;;;;;;;11.63;2.38;;;7.60;76.70;;;;;;6257076;28;20056;-79
2022/01/06 13:48:42;;;;;;;5.32;2.25;;;7.60;76.60;;;;;;6258210;28;20136;-80
2022/01/06 13:51:44;;;;;;;7.38;2.00;;;7.60;76.60;;;;;;6257270;28;20049;-79
2022/01/06 13:54:46;;;;;;;7.45;2.55;;;7.60;76.60;;;;;;6256901;28;20052;-80
2022/01/06 13:57:48;;;;;;;11.40;2.45;;;7.60;76.90;;;;;;6259193;28;20054;-82
2022/01/06 14:00:51;;;;;;;8.18;1.75;;;7.50;76.90;;;;;;6256991;28;20422;-82
2022/01/06 14:03:55;;;;;;;10.25;2.95;;;7.50;77.10;;;;;;6264442;28;20414;-81
2022/01/06 14:06:56;;;;;;;17.58;3.10;;;7.60;77.30;;;;;;6275896;28;20206;-81
2022/01/06 14:09:58;;;;;;;9.35;3.13;;;7.60;77.10;;;;;;6281971;28;20049;-80
2022/01/06 14:13:00;;;;;;;11.75;2.70;;;7.60;76.90;;;;;;6280681;28;20049;-81
2022/01/06 14:16:03;;;;;;;12.63;3.20;;;7.60;76.90;;;;;;6281343;28;20051;-82
2022/01/06 14:19:06;;;;;;;9.23;1.80;;;7.70;76.70;;;;;;6280920;28;20116;-82
2022/01/06 14:22:08;;;;;;;4.50;1.65;;;7.60;76.60;;;;;;6281081;28;20049;-81
2022/01/06 14:25:10;;;;;;;10.02;3.55;;;7.70;76.70;;;;;;6280541;28;20049;-81
2022/01/06 14:28:12;;;;;;;8.85;2.33;;;7.70;76.60;;;;;;6243633;28;20092;-82
2022/01/06 14:31:14;;;;;;;14.05;3.28;;;7.80;76.20;;;;;;6217432;28;20446;-81
2022/01/06 14:34:17;;;;;;;17.23;3.10;;;7.70;76.30;;;;;;6264150;28;20448;-84
2022/01/06 14:37:19;;;;;;;12.52;2.30;;;7.70;76.10;;;;;;6279602;28;20047;-81
2022/01/06 14:40:21;;;;;;;9.32;1.98;;;7.70;75.80;;;;;;6259887;28;20054;-81
2022/01/06 14:43:23;;;;;;;8.57;1.85;;;7.70;76.00;;;;;;6231209;28;20544;-81
2022/01/06 14:46:25;;;;;;;10.65;3.30;;;7.50;75.80;;;;;;6231329;28;20061;-83
2022/01/06 14:49:28;;;;;;;8.77;1.92;;;7.40;76.10;;;;;;6233624;28;20050;-80
2022/01/06 14:52:29;;;;;;;7.22;2.40;;;7.20;76.40;;;;;;6229570;28;20053;-80
2022/01/06 14:55:31;;;;;;;6.30;1.65;;;7.10;76.80;;;;;;6230392;28;20046;-79
2022/01/06 14:58:33;;;;;;;5.60;3.10;;;7.10;77.40;;;;;;6230372;28;20049;-80
2022/01/06 15:01:36;;;;;;;7.97;2.70;;;6.90;77.70;;;;;;6234260;28;20053;-80
2022/01/06 15:04:39;;;;;;;10.00;2.67;;;6.90;78.70;;;;;;6246527;28;20107;-80
2022/01/06 15:07:41;;;;;;;6.15;2.03;;;6.70;78.80;;;;;;6253934;28;20052;-80
2022/01/06 15:10:43;;;;;;;5.68;1.88;;;6.60;79.30;;;;;;6254487;28;20109;-81
2022/01/06 15:13:45;;;;;;;5.18;1.88;;;6.40;79.50;;;;;;6256401;28;20056;-80
2022/01/06 15:16:46;;;;;;;11.25;2.50;;;6.30;79.80;;;;;;6255541;28;20053;-81
2022/01/06 15:19:50;;;;;;;12.00;1.92;;;6.30;80.40;;;;;;6260665;28;20046;-78
2022/01/06 15:22:52;;;;;;;6.10;1.55;;;6.20;80.60;;;;;;6254870;28;20041;-81
2022/01/06 15:25:53;;;;;;;13.52;2.33;;;6.10;80.90;;;;;;6256591;28;20057;-84
2022/01/06 15:28:55;;;;;;;11.73;1.85;;;5.90;81.20;;;;;;6257384;28;20095;-81
2022/01/06 15:31:57;;;;;;;14.48;2.33;;;5.90;81.60;;;;;;6257161;28;20049;-81
2022/01/06 15:35:00;;;;;;;7.10;1.55;;;5.90;81.90;;;;;;6255941;28;20041;-80
2022/01/06 15:38:02;;;;;;;7.70;2.00;;;5.80;81.80;;;;;;6255312;28;20132;-79
2022/01/06 15:41:04;;;;;;;8.35;2.65;;;5.80;81.80;;;;;;6254566;28;20053;-80
2022/01/06 15:44:06;;;;;;;6.65;2.08;;;5.80;81.90;;;;;;6236635;28;20128;-81
2022/01/06 15:47:08;;;;;;;9.07;2.38;;;5.90;81.90;;;;;;6260551;28;20052;-80
2022/01/06 15:50:12;;;;;;;10.05;3.10;;;5.90;81.90;;;;;;6263319;28;20049;-82
2022/01/06 15:53:14;;;;;;;4.15;2.08;;;6.00;81.90;;;;;;6253696;28;20056;-79
2022/01/06 15:56:16;;;;;;;11.00;2.33;;;5.90;81.80;;;;;;6251588;28;20127;-81
2022/01/06 15:59:24;;;;;;;7.07;2.50;;;5.80;81.80;;;;;;6253796;28;20045;-81
2022/01/06 16:05:47;;;;;;;6.28;1.48;;;5.70;82.30;;;;;;6267633;28;20045;-79